Decoded Metar for SBBV (BOA VISTA in BRAZIL) (IATA:BVB) | Meteo·Mobile Aviation Weather
aviador You're here:

SBBV Decoded Metar

BOA VISTA in BRAZIL
Report Time2018-10-18 00:00:00
UTC Time2018-10-18 00:45:14
Flight Rules vfr VFR
Wind100° at 05 kt
W.Decomp.*RWY 08: 4.1 kt HW 2.8 kt RCW
W.Rank100° ranks 5
Current wind is below 100° avg. (6.8)
Visibility9999 m
Phenomena:N/A
Clouds:N/A
Expected CloudBase > 4,000 ft AGL from Temp-Dew spread
CeilingNone
Temp32°C (ISA +18)
Dew Point22°C (55% RH)
Heat Index35.6°C
QNH1008 hPa
Density Alt3,018 ft
Elevation459 ft
Report Wrong Elevation
Raw Report
METAR SBBV 180000Z 10005KT CAVOK 32/22 Q1008=

Extra information for SBBV:More info

Metar Taf Metar & Taf Last 4 Metars F.Rules Stats Wind Profile Meteogram Temp Stats Airport Information Weather charts Add Link Nearby VenuesMetar ALERT Operation Metar Decoded Social comments